createdAt,value
2022-11-01T00:01:21.819Z,80.34
2022-11-01T00:04:28.273Z,80.41
2022-11-01T00:07:33.859Z,80.22
2022-11-01T00:10:42.797Z,79.81
2022-11-01T00:13:51.369Z,79.68
2022-11-01T00:16:57.364Z,79.40
2022-11-01T00:20:04.899Z,80.61
2022-11-01T00:23:10.550Z,81.91
2022-11-01T00:26:27.753Z,81.74
2022-11-01T00:29:33.396Z,80.84
2022-11-01T00:32:38.924Z,80.70
2022-11-01T00:35:46.958Z,80.50
2022-11-01T00:38:55.419Z,80.78
2022-11-01T00:42:03.648Z,79.98
2022-11-01T00:45:10.780Z,80.59
2022-11-01T00:48:16.887Z,81.11
2022-11-01T00:51:22.466Z,80.84
2022-11-01T00:54:30.904Z,81.77
2022-11-01T00:57:43.008Z,82.70
2022-11-01T01:00:51.675Z,83.75
2022-11-01T01:03:57.330Z,84.38
2022-11-01T01:07:03.051Z,84.69
2022-11-01T01:10:12.512Z,84.75
2022-11-01T01:13:21.241Z,83.10
2022-11-01T01:16:30.303Z,81.61
2022-11-01T01:19:55.976Z,82.05
2022-11-01T01:23:21.515Z,82.14
2022-11-01T01:26:49.900Z,83.89
2022-11-01T01:30:19.192Z,85.04
2022-11-01T01:33:45.050Z,84.72
2022-11-01T01:37:10.871Z,84.80
2022-11-01T01:40:37.285Z,84.64
2022-11-01T01:44:09.011Z,83.65
2022-11-01T01:47:42.546Z,83.77
2022-11-01T01:51:16.768Z,83.25
2022-11-01T01:54:42.563Z,83.03
2022-11-01T01:58:13.214Z,82.61
2022-11-01T02:01:43.335Z,83.14
2022-11-01T02:05:24.652Z,82.91
2022-11-01T02:08:56.328Z,82.65
2022-11-01T02:12:22.506Z,84.03
2022-11-01T02:16:28.532Z,83.65
2022-11-01T02:20:39.980Z,82.89
2022-11-01T02:24:47.339Z,81.95
2022-11-01T02:28:46.325Z,82.00
2022-11-01T02:32:29.145Z,82.16
2022-11-01T02:35:55.097Z,81.85
2022-11-01T02:42:32.124Z,81.54
2022-11-01T02:45:46.323Z,81.03
2022-11-01T02:48:56.411Z,82.00
2022-11-01T02:52:19.228Z,81.96
2022-11-01T02:55:34.245Z,81.85
2022-11-01T02:58:41.488Z,81.81
2022-11-01T03:01:56.415Z,81.92
2022-11-01T03:05:05.595Z,81.65
2022-11-01T03:08:18.142Z,81.07
2022-11-01T03:11:31.116Z,81.48
2022-11-01T03:14:50.335Z,81.01
2022-11-01T03:18:07.599Z,81.05
2022-11-01T03:21:28.790Z,80.80
2022-11-01T03:24:47.416Z,80.08
2022-11-01T03:27:53.026Z,80.16
2022-11-01T03:31:05.692Z,80.04
2022-11-01T03:34:20.166Z,80.47
2022-11-01T03:37:29.875Z,80.06
2022-11-01T03:40:41.980Z,80.61
2022-11-01T03:43:48.676Z,80.26
2022-11-01T03:46:54.406Z,80.01
2022-11-01T03:50:18.317Z,79.21
2022-11-01T03:53:26.964Z,78.94
2022-11-01T03:56:32.673Z,79.39
2022-11-01T03:59:38.298Z,79.94
2022-11-01T04:02:44.019Z,80.22
2022-11-01T04:05:49.626Z,80.26
2022-11-01T04:08:58.102Z,80.77
2022-11-01T04:12:03.651Z,81.58
2022-11-01T04:15:38.908Z,81.20
2022-11-01T04:19:08.774Z,81.25
2022-11-01T04:22:14.601Z,81.29
2022-11-01T04:25:22.908Z,81.59
2022-11-01T04:28:28.610Z,81.50
2022-11-01T04:31:37.116Z,81.38
2022-11-01T04:34:46.101Z,80.61
2022-11-01T04:38:00.826Z,80.26
2022-11-01T04:41:09.400Z,79.12
2022-11-01T04:44:15.394Z,78.80
2022-11-01T04:47:21.082Z,79.84
2022-11-01T04:50:26.692Z,79.35
2022-11-01T04:53:32.410Z,79.79
2022-11-01T04:56:40.638Z,78.65
2022-11-01T04:59:46.191Z,79.17
2022-11-01T05:02:52.888Z,79.32
2022-11-01T05:05:58.450Z,78.64
2022-11-01T05:09:10.470Z,78.44
2022-11-01T05:12:19.380Z,78.14
2022-11-01T05:15:25.068Z,78.83
2022-11-01T05:18:30.668Z,79.00
2022-11-01T05:21:36.572Z,78.93
2022-11-01T05:28:15.626Z,79.14
2022-11-01T05:31:21.180Z,79.09
2022-11-01T05:34:26.942Z,78.82
2022-11-01T05:37:32.546Z,78.68
2022-11-01T05:40:38.273Z,79.06
2022-11-01T05:43:46.469Z,79.32
2022-11-01T05:46:52.013Z,79.44
2022-11-01T05:49:57.732Z,79.44
2022-11-01T05:53:10.503Z,79.55
2022-11-01T05:56:16.236Z,79.40
2022-11-01T05:59:24.458Z,79.93
2022-11-01T06:02:30.471Z,79.28
2022-11-01T06:05:37.897Z,78.93
2022-11-01T06:08:43.513Z,78.53
2022-11-01T06:11:49.136Z,77.84
2022-11-01T06:14:57.347Z,78.58
2022-11-01T06:18:03.210Z,78.57
2022-11-01T06:21:09.509Z,77.84
2022-11-01T06:24:15.496Z,77.81
2022-11-01T06:27:21.195Z,77.39
2022-11-01T06:30:33.502Z,77.69
2022-11-01T06:33:39.269Z,77.77
2022-11-01T06:36:46.668Z,76.63
2022-11-01T06:39:52.302Z,76.61
2022-11-01T06:43:03.774Z,76.21
2022-11-01T06:46:12.371Z,76.01
2022-11-01T06:49:21.525Z,75.65
2022-11-01T06:52:27.282Z,75.08
2022-11-01T06:55:33.204Z,74.84
2022-11-01T06:58:38.874Z,75.29
2022-11-01T07:01:49.457Z,74.64
2022-11-01T07:04:55.261Z,73.61
2022-11-01T07:08:01.243Z,72.83
2022-11-01T07:11:07.548Z,70.77
2022-11-01T07:14:13.330Z,70.04
2022-11-01T07:17:21.876Z,70.37
2022-11-01T07:20:28.181Z,70.34
2022-11-01T07:23:34.860Z,69.87
2022-11-01T07:26:40.520Z,68.10
2022-11-01T07:29:46.305Z,67.09
2022-11-01T07:32:59.109Z,65.97
2022-11-01T07:36:06.010Z,65.84
2022-11-01T07:39:11.705Z,66.72
2022-11-01T07:42:17.301Z,65.48
2022-11-01T07:45:23.061Z,63.50
2022-11-01T07:48:35.324Z,63.21
2022-11-01T07:51:41.038Z,60.96
2022-11-01T07:54:46.732Z,59.63
2022-11-01T07:57:52.370Z,57.33
2022-11-01T08:00:58.414Z,55.95
2022-11-01T08:04:07.356Z,54.25
2022-11-01T08:07:13.073Z,53.22
2022-11-01T08:10:19.063Z,52.81
2022-11-01T08:13:27.474Z,53.46
2022-11-01T08:16:36.458Z,53.57
2022-11-01T08:19:44.794Z,52.17
2022-11-01T08:22:50.539Z,51.30
2022-11-01T08:25:56.271Z,49.97
2022-11-01T08:29:02.178Z,48.22
2022-11-01T08:32:08.034Z,47.45
2022-11-01T08:35:16.496Z,47.79
2022-11-01T08:38:22.660Z,48.23
2022-11-01T08:41:28.564Z,48.92
2022-11-01T08:44:34.988Z,48.75
2022-11-01T08:47:40.624Z,48.39
2022-11-01T08:50:49.720Z,49.98
2022-11-01T08:53:58.141Z,49.35
2022-11-01T08:57:04.797Z,47.78
2022-11-01T09:00:13.955Z,47.68
2022-11-01T09:03:19.836Z,47.26
2022-11-01T09:06:33.701Z,47.41
2022-11-01T09:09:41.929Z,48.85
2022-11-01T09:12:47.619Z,51.04
2022-11-01T09:15:54.618Z,52.02
2022-11-01T09:19:02.816Z,52.71
2022-11-01T09:22:11.212Z,52.63
2022-11-01T09:25:16.926Z,53.93
2022-11-01T09:28:23.260Z,54.94
2022-11-01T09:31:29.667Z,54.68
2022-11-01T09:34:35.364Z,55.30
2022-11-01T09:37:43.670Z,53.75
2022-11-01T09:41:00.418Z,51.93
2022-11-01T09:44:16.252Z,52.42
2022-11-01T09:47:36.357Z,52.43
2022-11-01T09:50:45.635Z,51.55
2022-11-01T09:54:01.075Z,50.65
2022-11-01T09:57:22.052Z,49.29
2022-11-01T10:00:45.464Z,49.23
2022-11-01T10:04:17.133Z,48.29
2022-11-01T10:07:40.359Z,46.29
2022-11-01T10:11:14.355Z,46.06
2022-11-01T10:14:48.185Z,47.30
2022-11-01T10:17:57.101Z,46.88
2022-11-01T10:21:13.844Z,46.17
2022-11-01T10:24:39.478Z,45.67
2022-11-01T10:28:02.331Z,46.94
2022-11-01T10:31:19.675Z,45.52
2022-11-01T10:34:36.132Z,45.65
2022-11-01T10:38:11.422Z,45.67
2022-11-01T10:41:34.096Z,45.66
2022-11-01T10:44:54.966Z,47.47
2022-11-01T10:48:02.248Z,48.94
2022-11-01T10:51:15.208Z,48.33
2022-11-01T10:54:29.323Z,47.80
2022-11-01T10:57:45.282Z,46.34
2022-11-01T11:00:56.128Z,45.04
2022-11-01T11:04:11.102Z,45.05
2022-11-01T11:07:21.440Z,45.66
2022-11-01T11:10:36.462Z,45.59
2022-11-01T11:13:47.115Z,45.96
2022-11-01T11:16:59.976Z,45.89
2022-11-01T11:20:14.136Z,46.66
2022-11-01T11:23:25.581Z,46.33
2022-11-01T11:30:13.852Z,46.54
2022-11-01T11:33:23.701Z,46.94
2022-11-01T11:36:36.835Z,47.47
2022-11-01T11:40:19.696Z,49.35
2022-11-01T11:43:34.362Z,49.04
2022-11-01T11:47:00.225Z,47.81
2022-11-01T11:50:32.527Z,48.76
2022-11-01T11:53:38.395Z,50.70
2022-11-01T11:56:45.183Z,50.94
2022-11-01T11:59:58.075Z,50.81
2022-11-01T12:03:09.940Z,50.82
2022-11-01T12:06:25.303Z,52.78
2022-11-01T12:09:48.065Z,53.27
2022-11-01T12:12:57.674Z,54.43
2022-11-01T12:16:24.767Z,54.13
2022-11-01T12:19:33.895Z,55.01
2022-11-01T12:22:51.454Z,55.13
2022-11-01T12:26:02.713Z,55.77
2022-11-01T12:29:31.958Z,56.34
2022-11-01T12:32:52.589Z,57.25
2022-11-01T12:35:59.968Z,58.36
2022-11-01T12:39:36.906Z,60.30
2022-11-01T12:42:54.532Z,60.31
2022-11-01T12:46:07.603Z,60.75
2022-11-01T12:49:29.893Z,60.20
2022-11-01T12:52:49.875Z,59.50
2022-11-01T12:56:02.175Z,59.61
2022-11-01T12:59:19.566Z,58.71
2022-11-01T13:03:07.943Z,59.44
2022-11-01T13:06:40.443Z,60.38
2022-11-01T13:10:03.005Z,58.66
2022-11-01T13:13:29.512Z,58.82
2022-11-01T13:16:45.837Z,58.73
2022-11-01T13:20:14.813Z,60.41
2022-11-01T13:23:34.568Z,60.41
2022-11-01T13:26:54.934Z,60.99
2022-11-01T13:30:13.984Z,61.47
2022-11-01T13:33:38.939Z,61.61
2022-11-01T13:36:59.133Z,62.30
2022-11-01T13:40:25.153Z,63.26
2022-11-01T13:43:40.861Z,64.34
2022-11-01T13:47:22.700Z,64.86
2022-11-01T13:51:11.267Z,65.16
2022-11-01T13:54:29.527Z,65.47
2022-11-01T13:57:45.350Z,66.31
2022-11-01T14:00:54.631Z,66.01
2022-11-01T14:04:57.884Z,67.67
2022-11-01T14:08:38.615Z,67.80
2022-11-01T14:11:50.898Z,68.68
2022-11-01T14:14:56.635Z,69.10
2022-11-01T14:18:10.551Z,69.28
2022-11-01T14:21:39.527Z,69.68
2022-11-01T14:25:02.817Z,70.26
2022-11-01T14:28:32.843Z,70.62
2022-11-01T14:31:45.982Z,69.83
2022-11-01T14:35:21.479Z,70.25
2022-11-01T14:38:44.441Z,70.41
2022-11-01T14:41:56.448Z,70.32
2022-11-01T14:45:09.276Z,70.63
2022-11-01T14:48:24.569Z,70.53
2022-11-01T14:51:41.653Z,71.50
2022-11-01T14:55:00.563Z,71.80
2022-11-01T14:58:23.688Z,71.41
2022-11-01T15:01:29.356Z,71.16
2022-11-01T15:04:44.053Z,71.51
2022-11-01T15:08:00.492Z,71.99
2022-11-01T15:11:22.812Z,72.03
2022-11-01T15:14:39.537Z,73.12
2022-11-01T15:17:54.415Z,73.46
2022-11-01T15:21:04.939Z,73.90
2022-11-01T15:24:28.094Z,74.64
2022-11-01T15:27:44.904Z,74.39
2022-11-01T15:31:00.107Z,73.94
2022-11-01T15:34:22.914Z,74.39
2022-11-01T15:37:33.670Z,75.00
2022-11-01T15:40:40.530Z,75.24
2022-11-01T15:43:55.274Z,75.36
2022-11-01T15:47:09.953Z,75.78
2022-11-01T15:50:16.843Z,75.69
2022-11-01T15:53:28.775Z,75.75
2022-11-01T15:56:50.344Z,75.91
2022-11-01T16:00:18.726Z,76.21
2022-11-01T16:03:34.298Z,76.46
2022-11-01T16:06:51.130Z,76.82
2022-11-01T16:10:10.583Z,76.66
2022-11-01T16:13:23.017Z,76.64
2022-11-01T16:17:01.498Z,76.58
2022-11-01T16:20:34.430Z,76.74
2022-11-01T16:23:40.457Z,77.06
2022-11-01T16:26:58.595Z,78.09
2022-11-01T16:30:08.739Z,77.24
2022-11-01T16:33:32.909Z,77.94
2022-11-01T16:36:43.031Z,77.67
2022-11-01T16:39:49.910Z,76.79
2022-11-01T16:42:56.131Z,77.63
2022-11-01T16:46:09.547Z,77.64
2022-11-01T16:49:24.938Z,77.75
2022-11-01T16:52:30.624Z,78.39
2022-11-01T16:55:37.360Z,77.95
2022-11-01T16:58:43.700Z,78.91
2022-11-01T17:01:50.915Z,78.01
2022-11-01T17:05:09.460Z,78.46
2022-11-01T17:08:15.477Z,78.76
2022-11-01T17:11:21.118Z,78.90
2022-11-01T17:14:27.012Z,79.06
2022-11-01T17:17:34.208Z,78.88
2022-11-01T17:20:50.934Z,78.40
2022-11-01T17:23:56.723Z,78.44
2022-11-01T17:27:07.554Z,78.19
2022-11-01T17:30:14.884Z,78.72
2022-11-01T17:33:20.707Z,78.75
2022-11-01T17:36:29.148Z,78.37
2022-11-01T17:39:35.191Z,78.55
2022-11-01T17:42:40.961Z,78.67
2022-11-01T17:45:47.011Z,78.21
2022-11-01T17:48:56.515Z,78.46
2022-11-01T17:52:04.819Z,78.52
2022-11-01T17:55:17.890Z,78.56
2022-11-01T17:58:25.443Z,78.20
2022-11-01T18:01:32.559Z,78.06
2022-11-01T18:04:38.642Z,78.29
2022-11-01T18:07:52.862Z,78.44
2022-11-01T18:11:16.423Z,78.15
2022-11-01T18:14:48.098Z,78.35
2022-11-01T18:18:21.420Z,78.50
2022-11-01T18:21:38.903Z,78.96
2022-11-01T18:24:55.914Z,79.33
2022-11-01T18:28:05.987Z,79.34
2022-11-01T18:31:28.278Z,78.97
2022-11-01T18:34:47.278Z,79.42
2022-11-01T18:38:18.717Z,79.55
2022-11-01T18:41:30.293Z,79.63
2022-11-01T18:44:35.894Z,79.06
2022-11-01T18:47:50.845Z,79.61
2022-11-01T18:51:05.933Z,80.01
2022-11-01T18:54:29.007Z,79.70
2022-11-01T18:57:38.336Z,80.32
2022-11-01T19:00:44.594Z,80.22
2022-11-01T19:04:01.619Z,80.62
2022-11-01T19:07:15.870Z,80.66
2022-11-01T19:10:27.249Z,80.58
2022-11-01T19:13:38.047Z,81.21
2022-11-01T19:16:45.090Z,81.39
2022-11-01T19:19:51.653Z,81.34
2022-11-01T19:23:04.145Z,81.11
2022-11-01T19:26:26.056Z,80.75
2022-11-01T19:29:38.883Z,81.03
2022-11-01T19:32:44.786Z,80.59
2022-11-01T19:35:58.485Z,81.15
2022-11-01T19:39:16.831Z,80.50
2022-11-01T19:42:31.753Z,81.28
2022-11-01T19:45:54.943Z,81.33
2022-11-01T19:49:00.789Z,81.02
2022-11-01T19:52:29.677Z,81.55
2022-11-01T19:55:47.139Z,80.87
2022-11-01T19:58:57.833Z,81.44
2022-11-01T20:02:19.817Z,81.84
2022-11-01T20:05:33.319Z,81.90
2022-11-01T20:08:40.662Z,81.49
2022-11-01T20:11:46.293Z,80.34
2022-11-01T20:14:53.091Z,81.06
2022-11-01T20:18:05.212Z,81.43
2022-11-01T20:21:12.120Z,81.41
2022-11-01T20:24:18.339Z,80.55
2022-11-01T20:27:24.221Z,80.88
2022-11-01T20:30:29.956Z,80.23
2022-11-01T20:33:38.377Z,80.39
2022-11-01T20:37:02.153Z,80.95
2022-11-01T20:40:13.495Z,81.02
2022-11-01T20:43:19.561Z,80.83
2022-11-01T20:46:25.569Z,80.68
2022-11-01T20:49:33.835Z,80.38
2022-11-01T20:52:40.309Z,80.06
2022-11-01T20:55:49.259Z,79.98
2022-11-01T20:58:54.908Z,80.21
2022-11-01T21:02:01.025Z,80.59
2022-11-01T21:05:23.791Z,79.94
2022-11-01T21:08:34.459Z,80.02
2022-11-01T21:11:47.301Z,80.37
2022-11-01T21:14:53.054Z,80.25
2022-11-01T21:18:41.975Z,80.06
2022-11-01T21:21:55.683Z,79.62
2022-11-01T21:25:03.239Z,79.68
2022-11-01T21:28:32.533Z,79.53
2022-11-01T21:31:42.628Z,79.62
2022-11-01T21:34:49.717Z,79.45
2022-11-01T21:37:59.872Z,79.51
2022-11-01T21:41:28.528Z,79.33
2022-11-01T21:44:41.875Z,79.53
2022-11-01T21:47:47.556Z,79.25
2022-11-01T21:50:53.369Z,78.80
2022-11-01T21:54:04.407Z,78.73
2022-11-01T21:57:14.131Z,78.74
2022-11-01T22:00:20.429Z,78.58
2022-11-01T22:03:26.232Z,77.75
2022-11-01T22:06:32.107Z,78.03
2022-11-01T22:09:46.796Z,78.83
2022-11-01T22:12:52.587Z,78.93
2022-11-01T22:16:00.610Z,79.07
2022-11-01T22:19:07.266Z,79.71
2022-11-01T22:22:13.051Z,78.84
2022-11-01T22:25:21.922Z,79.33
2022-11-01T22:28:27.671Z,78.81
2022-11-01T22:31:33.427Z,78.71
2022-11-01T22:34:39.127Z,79.79
2022-11-01T22:37:45.237Z,80.49
2022-11-01T22:40:59.645Z,80.47
2022-11-01T22:44:08.599Z,80.46
2022-11-01T22:47:26.950Z,79.74
2022-11-01T22:50:32.622Z,79.67
2022-11-01T22:53:38.399Z,79.75
2022-11-01T22:56:47.389Z,79.23
2022-11-01T22:59:58.229Z,78.94
2022-11-01T23:03:22.757Z,78.54
2022-11-01T23:06:36.497Z,77.95
2022-11-01T23:09:49.403Z,78.80
2022-11-01T23:13:35.473Z,79.08
2022-11-01T23:16:47.469Z,78.84
2022-11-01T23:19:58.560Z,79.13
2022-11-01T23:23:05.003Z,79.91
2022-11-01T23:26:12.421Z,80.66
2022-11-01T23:29:20.718Z,80.56
2022-11-01T23:32:28.638Z,80.63
2022-11-01T23:35:35.829Z,80.31
2022-11-01T23:38:49.160Z,80.18
2022-11-01T23:41:57.591Z,80.01
2022-11-01T23:45:06.569Z,80.47
2022-11-01T23:48:12.802Z,80.30
2022-11-01T23:51:24.470Z,79.27
2022-11-01T23:54:42.301Z,79.28
2022-11-01T23:57:54.157Z,79.53
